createdAt,value
2023-01-27T00:03:13.363Z,5.80
2023-01-27T00:06:55.273Z,5.70
2023-01-27T00:10:38.067Z,5.60
2023-01-27T00:14:20.196Z,5.60
2023-01-27T00:18:02.556Z,5.50
2023-01-27T00:22:02.651Z,5.50
2023-01-27T00:25:50.283Z,5.40
2023-01-27T00:29:32.131Z,5.40
2023-01-27T00:33:29.096Z,5.40
2023-01-27T00:37:11.072Z,5.30
2023-01-27T00:41:11.568Z,5.30
2023-01-27T00:45:11.811Z,5.30
2023-01-27T00:48:53.936Z,5.20
2023-01-27T00:52:35.823Z,5.10
2023-01-27T00:56:17.995Z,5.10
2023-01-27T00:59:59.969Z,5.00
2023-01-27T01:03:42.339Z,5.00
2023-01-27T01:07:24.564Z,4.90
2023-01-27T01:11:07.748Z,4.90
2023-01-27T01:14:49.540Z,4.80
2023-01-27T01:18:31.371Z,4.80
2023-01-27T01:22:13.236Z,4.90
2023-01-27T01:25:56.616Z,4.80
2023-01-27T01:29:38.498Z,4.80
2023-01-27T01:33:20.411Z,4.80
2023-01-27T01:37:02.367Z,4.70
2023-01-27T01:40:45.040Z,4.70
2023-01-27T01:44:29.766Z,4.70
2023-01-27T01:48:17.988Z,4.70
2023-01-27T01:52:04.978Z,4.60
2023-01-27T01:55:48.786Z,4.60
2023-01-27T01:59:55.231Z,4.50
2023-01-27T02:03:40.834Z,4.50
2023-01-27T02:07:31.868Z,4.40
2023-01-27T02:11:13.870Z,4.30
2023-01-27T02:14:55.884Z,4.30
2023-01-27T02:18:39.910Z,4.30
2023-01-27T02:22:41.793Z,4.30
2023-01-27T02:26:34.677Z,4.30
2023-01-27T02:30:16.980Z,4.20
2023-01-27T02:34:04.644Z,4.20
2023-01-27T02:37:48.361Z,4.20
2023-01-27T02:41:39.150Z,4.10
2023-01-27T02:45:20.974Z,4.10
2023-01-27T02:49:03.783Z,4.10
2023-01-27T02:52:45.623Z,4.00
2023-01-27T02:56:27.594Z,4.00
2023-01-27T03:00:13.231Z,4.00
2023-01-27T03:03:55.083Z,4.00
2023-01-27T03:07:36.929Z,3.90
2023-01-27T03:11:38.869Z,3.90
2023-01-27T03:15:39.404Z,3.90
2023-01-27T03:19:21.295Z,3.90
2023-01-27T03:23:03.920Z,3.90
2023-01-27T03:26:45.955Z,3.80
2023-01-27T03:30:29.315Z,3.80
2023-01-27T03:34:11.176Z,3.80
2023-01-27T03:38:11.815Z,3.70
2023-01-27T03:42:12.480Z,3.80
2023-01-27T03:46:12.778Z,3.70
2023-01-27T03:49:54.682Z,3.60
2023-01-27T03:53:37.003Z,3.70
2023-01-27T03:57:18.945Z,3.70
2023-01-27T04:01:04.056Z,3.70
2023-01-27T04:05:04.293Z,3.70
2023-01-27T04:08:46.196Z,3.80
2023-01-27T04:12:28.097Z,3.80
2023-01-27T04:16:09.976Z,3.80
2023-01-27T04:19:51.850Z,3.80
2023-01-27T04:23:33.826Z,3.90
2023-01-27T04:27:15.785Z,3.90
2023-01-27T04:30:59.247Z,3.90
2023-01-27T04:34:42.160Z,3.90
2023-01-27T04:38:24.178Z,3.90
2023-01-27T04:42:06.051Z,4.00
2023-01-27T04:45:48.054Z,4.00
2023-01-27T04:49:30.229Z,4.10
2023-01-27T04:53:12.131Z,4.10
2023-01-27T04:57:00.397Z,4.20
2023-01-27T05:00:42.576Z,4.20
2023-01-27T05:04:26.458Z,4.30
2023-01-27T05:08:10.407Z,4.30
2023-01-27T05:11:52.406Z,4.30
2023-01-27T05:15:34.260Z,4.30
2023-01-27T05:19:16.330Z,4.30
2023-01-27T05:23:18.370Z,4.30
2023-01-27T05:27:00.246Z,4.40
2023-01-27T05:30:42.095Z,4.40
2023-01-27T05:34:24.364Z,4.50
2023-01-27T05:38:06.243Z,4.40
2023-01-27T05:41:48.069Z,4.50
2023-01-27T05:45:30.171Z,4.50
2023-01-27T05:49:12.223Z,4.60
2023-01-27T05:52:54.093Z,4.60
2023-01-27T05:56:36.065Z,4.60
2023-01-27T06:00:18.595Z,4.60
2023-01-27T06:04:01.168Z,4.60
2023-01-27T06:07:43.465Z,4.70
2023-01-27T06:11:26.172Z,4.70
2023-01-27T06:15:08.912Z,4.80
2023-01-27T06:18:50.993Z,4.70
2023-01-27T06:22:32.806Z,4.70
2023-01-27T06:26:17.529Z,4.70
2023-01-27T06:29:59.380Z,4.70
2023-01-27T06:33:41.755Z,4.70
2023-01-27T06:37:23.582Z,4.60
2023-01-27T06:41:05.590Z,4.70
2023-01-27T06:44:47.383Z,4.70
2023-01-27T06:48:29.468Z,4.70
2023-01-27T06:52:11.356Z,4.70
2023-01-27T06:55:57.878Z,4.70
2023-01-27T06:59:40.813Z,4.70
2023-01-27T07:03:22.813Z,4.70
2023-01-27T07:07:04.684Z,4.70
2023-01-27T07:10:46.574Z,4.70
2023-01-27T07:14:28.438Z,4.70
2023-01-27T07:18:12.088Z,4.80
2023-01-27T07:21:53.987Z,4.80
2023-01-27T07:25:36.066Z,4.70
2023-01-27T07:29:18.342Z,4.70
2023-01-27T07:33:12.914Z,4.70
2023-01-27T07:36:54.868Z,4.70
2023-01-27T07:40:36.888Z,4.70
2023-01-27T07:44:19.083Z,4.80
2023-01-27T07:48:02.881Z,4.70
2023-01-27T07:51:44.779Z,4.70
2023-01-27T07:55:26.789Z,4.70
2023-01-27T07:59:10.907Z,4.70
2023-01-27T08:02:57.012Z,4.80
2023-01-27T08:06:39.707Z,4.80
2023-01-27T08:10:22.435Z,4.80
2023-01-27T08:14:04.285Z,4.80
2023-01-27T08:17:57.031Z,4.80
2023-01-27T08:21:38.899Z,4.80
2023-01-27T08:25:21.520Z,4.80
2023-01-27T08:29:03.413Z,4.80
2023-01-27T08:32:45.473Z,4.80
2023-01-27T08:36:27.375Z,4.80
2023-01-27T08:40:10.145Z,4.80
2023-01-27T08:43:53.817Z,4.90
2023-01-27T08:47:35.726Z,4.90
2023-01-27T08:51:18.043Z,4.90
2023-01-27T08:54:59.910Z,4.90
2023-01-27T08:58:42.355Z,5.00
2023-01-27T09:02:24.515Z,5.00
2023-01-27T09:06:09.258Z,5.10
2023-01-27T09:09:56.018Z,5.10
2023-01-27T09:13:43.709Z,5.10
2023-01-27T09:17:25.795Z,5.20
2023-01-27T09:21:07.740Z,5.10
2023-01-27T09:24:49.572Z,5.30
2023-01-27T09:28:31.450Z,5.30
2023-01-27T09:32:13.377Z,5.30
2023-01-27T09:36:06.572Z,5.30
2023-01-27T09:39:55.457Z,5.30
2023-01-27T09:43:48.986Z,5.30
2023-01-27T09:47:52.086Z,5.30
2023-01-27T09:52:01.407Z,5.40
2023-01-27T09:56:03.500Z,5.40
2023-01-27T10:00:00.488Z,5.50
2023-01-27T10:03:55.647Z,5.50
2023-01-27T10:08:12.545Z,5.40
2023-01-27T10:12:17.492Z,5.50
2023-01-27T10:16:37.564Z,5.50
2023-01-27T10:20:39.719Z,5.60
2023-01-27T10:24:42.043Z,5.60
2023-01-27T10:28:26.975Z,5.60
2023-01-27T10:32:32.018Z,5.60
2023-01-27T10:36:31.527Z,5.60
2023-01-27T10:40:29.351Z,5.70
2023-01-27T10:44:32.416Z,5.80
2023-01-27T10:48:30.356Z,5.80
2023-01-27T10:52:37.121Z,5.80
2023-01-27T10:56:44.487Z,5.80
2023-01-27T11:01:14.028Z,5.80
2023-01-27T11:04:47.726Z,5.80
2023-01-27T11:08:34.047Z,5.80
2023-01-27T11:12:19.757Z,5.90
2023-01-27T11:16:04.358Z,5.90
2023-01-27T11:19:54.193Z,6.00
2023-01-27T11:23:49.008Z,6.00
2023-01-27T11:27:46.776Z,6.00
2023-01-27T11:31:42.893Z,6.00
2023-01-27T11:35:25.048Z,6.10
2023-01-27T11:39:06.953Z,6.20
2023-01-27T11:42:51.580Z,6.20
2023-01-27T11:46:35.504Z,6.30
2023-01-27T11:50:20.895Z,6.30
2023-01-27T11:54:14.215Z,6.30
2023-01-27T11:58:26.959Z,6.40
2023-01-27T12:02:08.753Z,6.40
2023-01-27T12:06:01.189Z,6.40
2023-01-27T12:09:43.435Z,6.40
2023-01-27T12:13:26.091Z,6.50
2023-01-27T12:17:08.690Z,6.50
2023-01-27T12:21:01.737Z,6.50
2023-01-27T12:24:49.741Z,6.60
2023-01-27T12:28:31.686Z,6.60
2023-01-27T12:32:45.418Z,6.70
2023-01-27T12:36:30.264Z,6.80
2023-01-27T12:40:29.181Z,6.90
2023-01-27T12:44:19.538Z,7.00
2023-01-27T12:48:09.103Z,7.00
2023-01-27T12:51:54.418Z,7.10
2023-01-27T12:55:44.736Z,7.20
2023-01-27T12:59:28.278Z,7.20
2023-01-27T13:03:12.153Z,7.30
2023-01-27T13:07:03.076Z,7.30
2023-01-27T13:10:57.948Z,7.40
2023-01-27T13:14:42.704Z,7.40
2023-01-27T13:18:24.850Z,7.70
2023-01-27T13:22:10.005Z,7.80
2023-01-27T13:26:11.489Z,7.90
2023-01-27T13:30:10.245Z,7.90
2023-01-27T13:34:00.503Z,7.90
2023-01-27T13:38:15.554Z,7.90
2023-01-27T13:42:24.887Z,7.90
2023-01-27T13:46:28.946Z,7.80
2023-01-27T13:50:22.686Z,7.80
2023-01-27T13:54:05.336Z,7.80
2023-01-27T13:58:31.992Z,7.80
2023-01-27T14:02:34.904Z,7.70
2023-01-27T14:06:22.476Z,7.70
2023-01-27T14:10:22.040Z,7.60
2023-01-27T14:14:21.947Z,7.60
2023-01-27T14:18:10.364Z,7.50
2023-01-27T14:21:57.430Z,7.50
2023-01-27T14:25:54.840Z,7.40
2023-01-27T14:29:55.216Z,7.40
2023-01-27T14:33:55.914Z,7.40
2023-01-27T14:37:56.343Z,7.50
2023-01-27T14:42:00.516Z,7.40
2023-01-27T14:45:55.988Z,7.40
2023-01-27T14:49:37.847Z,7.40
2023-01-27T14:53:25.681Z,7.30
2023-01-27T14:57:14.069Z,7.30
2023-01-27T15:01:14.508Z,7.30
2023-01-27T15:05:09.429Z,7.30
2023-01-27T15:09:19.424Z,7.30
2023-01-27T15:13:20.050Z,7.30
2023-01-27T15:17:31.275Z,7.30
2023-01-27T15:21:41.167Z,7.20
2023-01-27T15:25:47.611Z,7.20
2023-01-27T15:29:31.770Z,7.10
2023-01-27T15:33:44.410Z,7.10
2023-01-27T15:37:30.062Z,7.10
2023-01-27T15:41:14.814Z,7.10
2023-01-27T15:45:02.254Z,7.00
2023-01-27T15:48:45.260Z,7.00
2023-01-27T15:52:48.604Z,7.00
2023-01-27T15:56:46.897Z,7.00
2023-01-27T16:00:30.382Z,6.90
2023-01-27T16:04:38.663Z,6.90
2023-01-27T16:08:21.276Z,6.80
2023-01-27T16:12:26.941Z,6.80
2023-01-27T16:16:17.791Z,6.80
2023-01-27T16:20:23.444Z,6.80
2023-01-27T16:24:30.378Z,6.70
2023-01-27T16:28:14.640Z,6.70
2023-01-27T16:32:06.777Z,6.70
2023-01-27T16:36:03.746Z,6.60
2023-01-27T16:40:02.164Z,6.50
2023-01-27T16:44:00.755Z,6.40
2023-01-27T16:47:47.307Z,6.30
2023-01-27T16:51:29.790Z,6.10
2023-01-27T16:55:24.726Z,6.00
2023-01-27T16:59:10.258Z,5.90
2023-01-27T17:02:53.673Z,5.90
2023-01-27T17:06:35.720Z,5.80
2023-01-27T17:10:32.900Z,5.80
2023-01-27T17:14:30.036Z,5.80
2023-01-27T17:18:15.339Z,5.80
2023-01-27T17:22:11.402Z,5.80
2023-01-27T17:25:53.268Z,5.80
2023-01-27T17:29:39.494Z,5.80
2023-01-27T17:33:21.927Z,5.80
2023-01-27T17:37:21.405Z,5.80
2023-01-27T17:41:03.315Z,5.80
2023-01-27T17:44:46.859Z,5.80
2023-01-27T17:48:28.679Z,5.80
2023-01-27T17:52:15.641Z,5.80
2023-01-27T17:55:57.735Z,5.70
2023-01-27T17:59:43.757Z,5.70
2023-01-27T18:03:34.447Z,5.60
2023-01-27T18:07:16.339Z,5.50
2023-01-27T18:11:20.939Z,5.50
2023-01-27T18:15:39.019Z,5.50
2023-01-27T18:19:23.669Z,5.40
2023-01-27T18:23:12.504Z,5.50
2023-01-27T18:26:54.463Z,5.50
2023-01-27T18:30:36.711Z,5.40
2023-01-27T18:34:32.894Z,5.40
2023-01-27T18:38:32.028Z,5.30
2023-01-27T18:42:17.006Z,5.30
2023-01-27T18:45:58.846Z,5.30
2023-01-27T18:49:40.784Z,5.40
2023-01-27T18:53:23.269Z,5.40
2023-01-27T18:57:05.176Z,5.40
2023-01-27T19:00:50.229Z,5.40
2023-01-27T19:04:32.632Z,5.30
2023-01-27T19:08:23.439Z,5.30
2023-01-27T19:12:05.513Z,5.30
2023-01-27T19:15:53.606Z,5.30
2023-01-27T19:19:35.430Z,5.30
2023-01-27T19:23:19.628Z,5.20
2023-01-27T19:27:03.356Z,5.10
2023-01-27T19:30:46.744Z,5.00
2023-01-27T19:34:28.619Z,4.90
2023-01-27T19:38:12.383Z,4.90
2023-01-27T19:41:54.216Z,4.70
2023-01-27T19:45:36.070Z,4.70
2023-01-27T19:49:19.582Z,4.60
2023-01-27T19:53:02.234Z,4.50
2023-01-27T19:56:44.599Z,4.50
2023-01-27T20:00:36.739Z,4.50
2023-01-27T20:04:18.691Z,4.50
2023-01-27T20:08:00.619Z,4.50
2023-01-27T20:11:44.068Z,4.50
2023-01-27T20:15:28.749Z,4.50
2023-01-27T20:19:17.576Z,4.50
2023-01-27T20:22:59.983Z,4.50
2023-01-27T20:26:41.902Z,4.40
2023-01-27T20:30:25.902Z,4.40
2023-01-27T20:34:07.808Z,4.30
2023-01-27T20:37:51.472Z,4.30
2023-01-27T20:41:33.331Z,4.30
2023-01-27T20:45:15.935Z,4.20
2023-01-27T20:49:00.852Z,4.10
2023-01-27T20:52:42.834Z,4.10
2023-01-27T20:56:24.746Z,4.00
2023-01-27T21:00:07.715Z,4.00
2023-01-27T21:03:50.833Z,3.90
2023-01-27T21:07:32.749Z,3.90
2023-01-27T21:11:17.769Z,3.80
2023-01-27T21:15:01.678Z,3.80
2023-01-27T21:18:44.808Z,3.80
2023-01-27T21:22:26.677Z,3.70
2023-01-27T21:26:09.641Z,3.70
2023-01-27T21:29:52.838Z,3.60
2023-01-27T21:33:38.960Z,3.60
2023-01-27T21:37:20.812Z,3.50
2023-01-27T21:41:14.114Z,3.50
2023-01-27T21:45:15.779Z,3.50
2023-01-27T21:48:57.907Z,3.50
2023-01-27T21:52:50.471Z,3.50
2023-01-27T21:56:32.426Z,3.50
2023-01-27T22:00:16.704Z,3.40
2023-01-27T22:03:58.743Z,3.40
2023-01-27T22:07:41.692Z,3.30
2023-01-27T22:11:23.551Z,3.30
2023-01-27T22:15:06.734Z,3.30
2023-01-27T22:18:48.641Z,3.30
2023-01-27T22:22:30.528Z,3.30
2023-01-27T22:26:12.448Z,3.30
2023-01-27T22:29:54.228Z,3.40
2023-01-27T22:33:36.307Z,3.50
2023-01-27T22:37:18.209Z,3.50
2023-01-27T22:41:00.095Z,3.60
2023-01-27T22:44:41.890Z,3.60
2023-01-27T22:48:23.813Z,3.70
2023-01-27T22:52:05.662Z,3.80
2023-01-27T22:55:47.471Z,3.80
2023-01-27T22:59:29.353Z,3.80
2023-01-27T23:03:11.327Z,3.90
2023-01-27T23:06:53.667Z,3.90
2023-01-27T23:10:35.897Z,3.90
2023-01-27T23:14:19.240Z,3.90
2023-01-27T23:18:01.212Z,4.00
2023-01-27T23:21:43.008Z,4.00
2023-01-27T23:25:25.095Z,4.00
2023-01-27T23:29:23.064Z,4.00
2023-01-27T23:33:06.318Z,4.00
2023-01-27T23:36:48.811Z,4.00
2023-01-27T23:40:32.731Z,4.10
2023-01-27T23:44:14.905Z,4.00
2023-01-27T23:47:56.854Z,4.00
2023-01-27T23:51:38.701Z,3.90
2023-01-27T23:55:20.556Z,3.90
2023-01-27T23:59:02.832Z,3.80
